sensor_id;sensor_type;location;lat;lon;timestamp;P1;durP1;ratioP1;P2;durP2;ratioP2
63346;SDS011;49472;49.880;8.650;2023-06-14T00:01:16;18.83;;;17.08;;
63346;SDS011;49472;49.880;8.650;2023-06-14T00:03:41;17.63;;;16.20;;
63346;SDS011;49472;49.880;8.650;2023-06-14T00:06:07;17.77;;;16.05;;
63346;SDS011;49472;49.880;8.650;2023-06-14T00:08:32;18.15;;;16.85;;
63346;SDS011;49472;49.880;8.650;2023-06-14T00:10:58;19.13;;;17.48;;
63346;SDS011;49472;49.880;8.650;2023-06-14T00:13:23;19.23;;;17.55;;
63346;SDS011;49472;49.880;8.650;2023-06-14T00:15:49;17.65;;;16.20;;
63346;SDS011;49472;49.880;8.650;2023-06-14T00:18:14;18.50;;;16.90;;
63346;SDS011;49472;49.880;8.650;2023-06-14T00:20:39;18.77;;;17.33;;
63346;SDS011;49472;49.880;8.650;2023-06-14T00:23:06;18.35;;;16.77;;
63346;SDS011;49472;49.880;8.650;2023-06-14T00:25:32;18.80;;;17.23;;
63346;SDS011;49472;49.880;8.650;2023-06-14T00:27:57;19.13;;;17.27;;
63346;SDS011;49472;49.880;8.650;2023-06-14T00:30:23;18.33;;;16.40;;
63346;SDS011;49472;49.880;8.650;2023-06-14T00:32:49;19.05;;;16.73;;
63346;SDS011;49472;49.880;8.650;2023-06-14T00:35:15;19.50;;;17.45;;
63346;SDS011;49472;49.880;8.650;2023-06-14T00:37:40;18.52;;;17.13;;
63346;SDS011;49472;49.880;8.650;2023-06-14T00:40:06;19.75;;;18.17;;
63346;SDS011;49472;49.880;8.650;2023-06-14T00:42:32;17.35;;;16.13;;
63346;SDS011;49472;49.880;8.650;2023-06-14T00:44:57;20.52;;;16.65;;
63346;SDS011;49472;49.880;8.650;2023-06-14T00:47:23;19.05;;;17.33;;
63346;SDS011;49472;49.880;8.650;2023-06-14T00:49:50;19.38;;;17.45;;
63346;SDS011;49472;49.880;8.650;2023-06-14T00:52:16;19.27;;;16.60;;
63346;SDS011;49472;49.880;8.650;2023-06-14T00:54:42;18.63;;;16.65;;
63346;SDS011;49472;49.880;8.650;2023-06-14T00:57:08;30.25;;;16.23;;
63346;SDS011;49472;49.880;8.650;2023-06-14T00:59:36;17.70;;;16.08;;
63346;SDS011;49472;49.880;8.650;2023-06-14T01:02:08;18.30;;;16.45;;
63346;SDS011;49472;49.880;8.650;2023-06-14T01:04:34;17.48;;;16.08;;
63346;SDS011;49472;49.880;8.650;2023-06-14T01:12:18;17.35;;;15.95;;
63346;SDS011;49472;49.880;8.650;2023-06-14T01:14:49;18.95;;;16.75;;
63346;SDS011;49472;49.880;8.650;2023-06-14T01:17:16;18.33;;;16.83;;
63346;SDS011;49472;49.880;8.650;2023-06-14T01:19:42;18.50;;;16.75;;
63346;SDS011;49472;49.880;8.650;2023-06-14T01:22:09;18.88;;;17.17;;
63346;SDS011;49472;49.880;8.650;2023-06-14T01:24:35;19.60;;;17.70;;
63346;SDS011;49472;49.880;8.650;2023-06-14T01:27:01;17.50;;;16.30;;
63346;SDS011;49472;49.880;8.650;2023-06-14T01:29:27;19.03;;;17.07;;
63346;SDS011;49472;49.880;8.650;2023-06-14T01:31:57;18.27;;;16.60;;
63346;SDS011;49472;49.880;8.650;2023-06-14T01:34:23;18.17;;;16.67;;
63346;SDS011;49472;49.880;8.650;2023-06-14T01:36:49;18.17;;;16.48;;
63346;SDS011;49472;49.880;8.650;2023-06-14T01:39:15;16.55;;;15.25;;
63346;SDS011;49472;49.880;8.650;2023-06-14T01:41:42;17.25;;;15.85;;
63346;SDS011;49472;49.880;8.650;2023-06-14T01:44:10;19.20;;;17.70;;
63346;SDS011;49472;49.880;8.650;2023-06-14T01:46:37;17.83;;;16.52;;
63346;SDS011;49472;49.880;8.650;2023-06-14T01:49:03;18.23;;;16.52;;
63346;SDS011;49472;49.880;8.650;2023-06-14T01:51:29;18.15;;;16.67;;
63346;SDS011;49472;49.880;8.650;2023-06-14T01:53:54;17.02;;;15.55;;
63346;SDS011;49472;49.880;8.650;2023-06-14T01:56:20;17.65;;;16.42;;
63346;SDS011;49472;49.880;8.650;2023-06-14T01:58:46;20.23;;;16.43;;
63346;SDS011;49472;49.880;8.650;2023-06-14T02:01:13;19.60;;;16.13;;
63346;SDS011;49472;49.880;8.650;2023-06-14T02:03:41;29.73;;;16.77;;
63346;SDS011;49472;49.880;8.650;2023-06-14T02:06:07;17.80;;;15.87;;
63346;SDS011;49472;49.880;8.650;2023-06-14T02:08:32;18.17;;;16.48;;
63346;SDS011;49472;49.880;8.650;2023-06-14T02:10:58;22.10;;;16.90;;
63346;SDS011;49472;49.880;8.650;2023-06-14T02:13:23;18.50;;;16.75;;
63346;SDS011;49472;49.880;8.650;2023-06-14T02:15:48;18.42;;;16.50;;
63346;SDS011;49472;49.880;8.650;2023-06-14T02:18:16;19.80;;;17.08;;
63346;SDS011;49472;49.880;8.650;2023-06-14T02:20:41;17.45;;;15.95;;
63346;SDS011;49472;49.880;8.650;2023-06-14T02:23:06;17.15;;;15.68;;
63346;SDS011;49472;49.880;8.650;2023-06-14T02:25:32;17.27;;;15.50;;
63346;SDS011;49472;49.880;8.650;2023-06-14T02:27:58;18.83;;;16.23;;
63346;SDS011;49472;49.880;8.650;2023-06-14T02:30:23;18.40;;;16.73;;
63346;SDS011;49472;49.880;8.650;2023-06-14T02:32:48;20.08;;;17.15;;
63346;SDS011;49472;49.880;8.650;2023-06-14T02:35:16;17.48;;;16.10;;
63346;SDS011;49472;49.880;8.650;2023-06-14T02:37:41;18.60;;;17.10;;
63346;SDS011;49472;49.880;8.650;2023-06-14T02:40:07;18.70;;;16.67;;
63346;SDS011;49472;49.880;8.650;2023-06-14T02:42:34;18.43;;;16.63;;
63346;SDS011;49472;49.880;8.650;2023-06-14T02:44:59;18.60;;;16.90;;
63346;SDS011;49472;49.880;8.650;2023-06-14T02:47:25;17.97;;;16.30;;
63346;SDS011;49472;49.880;8.650;2023-06-14T02:49:50;18.13;;;16.67;;
63346;SDS011;49472;49.880;8.650;2023-06-14T02:52:16;18.00;;;16.70;;
63346;SDS011;49472;49.880;8.650;2023-06-14T02:54:41;18.10;;;16.55;;
63346;SDS011;49472;49.880;8.650;2023-06-14T02:57:07;18.10;;;16.67;;
63346;SDS011;49472;49.880;8.650;2023-06-14T02:59:33;20.03;;;18.23;;
63346;SDS011;49472;49.880;8.650;2023-06-14T03:01:58;21.00;;;17.80;;
63346;SDS011;49472;49.880;8.650;2023-06-14T03:04:24;18.33;;;16.77;;
63346;SDS011;49472;49.880;8.650;2023-06-14T03:06:50;18.23;;;16.83;;
63346;SDS011;49472;49.880;8.650;2023-06-14T03:09:16;19.50;;;17.20;;
63346;SDS011;49472;49.880;8.650;2023-06-14T03:11:42;17.60;;;16.20;;
63346;SDS011;49472;49.880;8.650;2023-06-14T03:14:07;17.20;;;16.00;;
63346;SDS011;49472;49.880;8.650;2023-06-14T03:16:33;18.87;;;17.20;;
63346;SDS011;49472;49.880;8.650;2023-06-14T03:18:58;18.70;;;17.10;;
63346;SDS011;49472;49.880;8.650;2023-06-14T03:21:24;18.87;;;17.47;;
63346;SDS011;49472;49.880;8.650;2023-06-14T03:23:50;20.00;;;17.97;;
63346;SDS011;49472;49.880;8.650;2023-06-14T03:26:15;17.33;;;15.93;;
63346;SDS011;49472;49.880;8.650;2023-06-14T03:28:43;23.50;;;16.50;;
63346;SDS011;49472;49.880;8.650;2023-06-14T03:31:09;19.97;;;18.17;;
63346;SDS011;49472;49.880;8.650;2023-06-14T03:33:35;19.57;;;18.10;;
63346;SDS011;49472;49.880;8.650;2023-06-14T03:36:01;19.27;;;17.20;;
63346;SDS011;49472;49.880;8.650;2023-06-14T03:38:27;19.03;;;17.53;;
63346;SDS011;49472;49.880;8.650;2023-06-14T03:40:52;19.73;;;18.03;;
63346;SDS011;49472;49.880;8.650;2023-06-14T03:43:18;20.03;;;17.60;;
63346;SDS011;49472;49.880;8.650;2023-06-14T03:45:43;19.87;;;17.97;;
63346;SDS011;49472;49.880;8.650;2023-06-14T03:48:08;18.30;;;16.83;;
63346;SDS011;49472;49.880;8.650;2023-06-14T03:50:34;19.10;;;17.37;;
63346;SDS011;49472;49.880;8.650;2023-06-14T03:53:02;18.43;;;16.83;;
63346;SDS011;49472;49.880;8.650;2023-06-14T03:55:28;26.70;;;17.10;;
63346;SDS011;49472;49.880;8.650;2023-06-14T03:57:56;19.77;;;16.63;;
63346;SDS011;49472;49.880;8.650;2023-06-14T04:00:21;19.03;;;17.47;;
63346;SDS011;49472;49.880;8.650;2023-06-14T04:02:46;18.30;;;16.53;;
63346;SDS011;49472;49.880;8.650;2023-06-14T04:05:12;19.43;;;17.57;;
63346;SDS011;49472;49.880;8.650;2023-06-14T04:07:38;17.83;;;16.20;;
63346;SDS011;49472;49.880;8.650;2023-06-14T04:10:10;19.30;;;17.50;;
63346;SDS011;49472;49.880;8.650;2023-06-14T04:12:37;20.50;;;18.27;;
63346;SDS011;49472;49.880;8.650;2023-06-14T04:15:02;19.30;;;17.60;;
63346;SDS011;49472;49.880;8.650;2023-06-14T04:17:30;27.10;;;18.90;;
63346;SDS011;49472;49.880;8.650;2023-06-14T04:19:57;19.63;;;17.67;;
63346;SDS011;49472;49.880;8.650;2023-06-14T04:22:24;18.40;;;16.90;;
63346;SDS011;49472;49.880;8.650;2023-06-14T04:24:53;19.53;;;16.70;;
63346;SDS011;49472;49.880;8.650;2023-06-14T04:27:21;19.13;;;17.70;;
63346;SDS011;49472;49.880;8.650;2023-06-14T04:29:50;19.63;;;17.70;;
63346;SDS011;49472;49.880;8.650;2023-06-14T04:32:28;18.07;;;16.77;;
63346;SDS011;49472;49.880;8.650;2023-06-14T04:34:57;18.80;;;17.10;;
63346;SDS011;49472;49.880;8.650;2023-06-14T04:37:24;18.60;;;17.20;;
63346;SDS011;49472;49.880;8.650;2023-06-14T04:39:53;24.73;;;17.07;;
63346;SDS011;49472;49.880;8.650;2023-06-14T04:42:20;19.97;;;18.07;;
63346;SDS011;49472;49.880;8.650;2023-06-14T04:44:50;17.50;;;16.30;;
63346;SDS011;49472;49.880;8.650;2023-06-14T04:47:16;18.80;;;16.90;;
63346;SDS011;49472;49.880;8.650;2023-06-14T04:49:41;18.87;;;16.77;;
63346;SDS011;49472;49.880;8.650;2023-06-14T04:52:07;18.83;;;16.87;;
63346;SDS011;49472;49.880;8.650;2023-06-14T04:54:35;18.20;;;16.50;;
63346;SDS011;49472;49.880;8.650;2023-06-14T04:57:02;18.90;;;17.20;;
63346;SDS011;49472;49.880;8.650;2023-06-14T04:59:28;18.87;;;16.90;;
63346;SDS011;49472;49.880;8.650;2023-06-14T05:01:58;19.20;;;17.20;;
63346;SDS011;49472;49.880;8.650;2023-06-14T05:04:23;19.90;;;17.93;;
63346;SDS011;49472;49.880;8.650;2023-06-14T05:06:50;19.37;;;17.60;;
63346;SDS011;49472;49.880;8.650;2023-06-14T05:09:16;17.67;;;16.17;;
63346;SDS011;49472;49.880;8.650;2023-06-14T05:11:44;18.90;;;17.40;;
63346;SDS011;49472;49.880;8.650;2023-06-14T05:14:13;18.97;;;17.43;;
63346;SDS011;49472;49.880;8.650;2023-06-14T05:16:38;31.93;;;17.13;;
63346;SDS011;49472;49.880;8.650;2023-06-14T05:19:04;25.63;;;16.77;;
63346;SDS011;49472;49.880;8.650;2023-06-14T05:21:30;18.97;;;16.87;;
63346;SDS011;49472;49.880;8.650;2023-06-14T05:23:56;17.03;;;15.83;;
63346;SDS011;49472;49.880;8.650;2023-06-14T05:26:22;19.03;;;17.13;;
63346;SDS011;49472;49.880;8.650;2023-06-14T05:28:50;17.20;;;15.90;;
63346;SDS011;49472;49.880;8.650;2023-06-14T05:31:17;19.67;;;17.40;;
63346;SDS011;49472;49.880;8.650;2023-06-14T05:33:42;23.90;;;17.17;;
63346;SDS011;49472;49.880;8.650;2023-06-14T05:36:08;20.57;;;16.33;;
63346;SDS011;49472;49.880;8.650;2023-06-14T05:38:33;21.03;;;17.23;;
63346;SDS011;49472;49.880;8.650;2023-06-14T05:40:59;18.20;;;16.87;;
63346;SDS011;49472;49.880;8.650;2023-06-14T05:43:24;18.23;;;16.70;;
63346;SDS011;49472;49.880;8.650;2023-06-14T05:45:49;16.47;;;15.33;;
63346;SDS011;49472;49.880;8.650;2023-06-14T05:48:15;16.67;;;15.15;;
63346;SDS011;49472;49.880;8.650;2023-06-14T05:50:40;17.63;;;16.23;;
63346;SDS011;49472;49.880;8.650;2023-06-14T05:53:06;17.83;;;16.00;;
63346;SDS011;49472;49.880;8.650;2023-06-14T05:55:31;28.23;;;16.43;;
63346;SDS011;49472;49.880;8.650;2023-06-14T05:57:56;18.17;;;16.63;;
63346;SDS011;49472;49.880;8.650;2023-06-14T06:00:22;18.13;;;16.55;;
63346;SDS011;49472;49.880;8.650;2023-06-14T06:02:47;18.17;;;16.33;;
63346;SDS011;49472;49.880;8.650;2023-06-14T06:05:13;19.17;;;16.93;;
63346;SDS011;49472;49.880;8.650;2023-06-14T06:07:40;18.27;;;16.45;;
63346;SDS011;49472;49.880;8.650;2023-06-14T06:10:05;18.30;;;16.58;;
63346;SDS011;49472;49.880;8.650;2023-06-14T06:12:31;19.65;;;16.00;;
63346;SDS011;49472;49.880;8.650;2023-06-14T06:14:57;17.67;;;15.73;;
63346;SDS011;49472;49.880;8.650;2023-06-14T06:17:24;17.60;;;16.00;;
63346;SDS011;49472;49.880;8.650;2023-06-14T06:19:50;19.57;;;15.97;;
63346;SDS011;49472;49.880;8.650;2023-06-14T06:22:15;17.48;;;16.00;;
63346;SDS011;49472;49.880;8.650;2023-06-14T06:24:40;17.23;;;15.50;;
63346;SDS011;49472;49.880;8.650;2023-06-14T06:27:06;17.10;;;15.75;;
63346;SDS011;49472;49.880;8.650;2023-06-14T06:29:33;17.40;;;15.75;;
63346;SDS011;49472;49.880;8.650;2023-06-14T06:31:59;17.10;;;15.55;;
63346;SDS011;49472;49.880;8.650;2023-06-14T06:34:25;17.27;;;15.43;;
63346;SDS011;49472;49.880;8.650;2023-06-14T06:36:50;21.05;;;15.52;;
63346;SDS011;49472;49.880;8.650;2023-06-14T06:39:16;22.20;;;15.68;;
63346;SDS011;49472;49.880;8.650;2023-06-14T06:41:41;20.90;;;16.40;;
63346;SDS011;49472;49.880;8.650;2023-06-14T06:44:06;17.85;;;15.32;;
63346;SDS011;49472;49.880;8.650;2023-06-14T06:46:32;18.50;;;16.85;;
63346;SDS011;49472;49.880;8.650;2023-06-14T06:48:58;17.08;;;15.60;;
63346;SDS011;49472;49.880;8.650;2023-06-14T06:51:25;18.08;;;16.48;;
63346;SDS011;49472;49.880;8.650;2023-06-14T06:53:53;18.58;;;16.50;;
63346;SDS011;49472;49.880;8.650;2023-06-14T06:56:20;17.35;;;15.85;;
63346;SDS011;49472;49.880;8.650;2023-06-14T06:58:48;17.85;;;16.45;;
63346;SDS011;49472;49.880;8.650;2023-06-14T07:01:14;17.80;;;16.20;;
63346;SDS011;49472;49.880;8.650;2023-06-14T07:03:40;18.65;;;16.95;;
63346;SDS011;49472;49.880;8.650;2023-06-14T07:06:06;18.52;;;16.65;;
63346;SDS011;49472;49.880;8.650;2023-06-14T07:08:31;17.20;;;15.65;;
63346;SDS011;49472;49.880;8.650;2023-06-14T07:10:56;18.10;;;16.52;;
63346;SDS011;49472;49.880;8.650;2023-06-14T07:13:22;17.67;;;16.38;;
63346;SDS011;49472;49.880;8.650;2023-06-14T07:15:47;17.70;;;16.25;;
63346;SDS011;49472;49.880;8.650;2023-06-14T07:18:12;20.77;;;16.55;;
63346;SDS011;49472;49.880;8.650;2023-06-14T07:20:38;19.20;;;16.23;;
63346;SDS011;49472;49.880;8.650;2023-06-14T07:23:03;17.90;;;16.58;;
63346;SDS011;49472;49.880;8.650;2023-06-14T07:25:29;18.70;;;16.75;;
63346;SDS011;49472;49.880;8.650;2023-06-14T07:27:56;17.27;;;15.88;;
63346;SDS011;49472;49.880;8.650;2023-06-14T07:30:22;16.42;;;14.98;;
63346;SDS011;49472;49.880;8.650;2023-06-14T07:32:50;16.42;;;15.10;;
63346;SDS011;49472;49.880;8.650;2023-06-14T07:35:19;17.20;;;15.68;;
63346;SDS011;49472;49.880;8.650;2023-06-14T07:37:44;17.02;;;15.32;;
63346;SDS011;49472;49.880;8.650;2023-06-14T07:40:12;17.38;;;15.98;;
63346;SDS011;49472;49.880;8.650;2023-06-14T07:42:38;16.77;;;15.23;;
63346;SDS011;49472;49.880;8.650;2023-06-14T07:45:04;18.02;;;16.35;;
63346;SDS011;49472;49.880;8.650;2023-06-14T07:47:29;16.83;;;15.40;;
63346;SDS011;49472;49.880;8.650;2023-06-14T07:49:55;17.45;;;15.93;;
63346;SDS011;49472;49.880;8.650;2023-06-14T07:52:20;17.02;;;15.57;;
63346;SDS011;49472;49.880;8.650;2023-06-14T07:54:47;17.45;;;16.20;;
63346;SDS011;49472;49.880;8.650;2023-06-14T07:57:13;21.20;;;16.77;;
63346;SDS011;49472;49.880;8.650;2023-06-14T07:59:38;18.10;;;16.10;;
63346;SDS011;49472;49.880;8.650;2023-06-14T08:02:03;19.02;;;17.17;;
63346;SDS011;49472;49.880;8.650;2023-06-14T08:04:29;20.95;;;16.38;;
63346;SDS011;49472;49.880;8.650;2023-06-14T08:06:56;17.08;;;15.77;;
63346;SDS011;49472;49.880;8.650;2023-06-14T08:09:21;17.55;;;16.27;;
63346;SDS011;49472;49.880;8.650;2023-06-14T08:11:47;19.15;;;16.55;;
63346;SDS011;49472;49.880;8.650;2023-06-14T08:14:12;18.40;;;16.70;;
63346;SDS011;49472;49.880;8.650;2023-06-14T08:16:37;18.42;;;15.75;;
63346;SDS011;49472;49.880;8.650;2023-06-14T08:19:03;18.92;;;16.23;;
63346;SDS011;49472;49.880;8.650;2023-06-14T08:21:28;16.52;;;15.27;;
63346;SDS011;49472;49.880;8.650;2023-06-14T08:23:54;17.80;;;16.13;;
63346;SDS011;49472;49.880;8.650;2023-06-14T08:26:20;17.35;;;15.88;;
63346;SDS011;49472;49.880;8.650;2023-06-14T08:28:47;18.17;;;16.33;;
63346;SDS011;49472;49.880;8.650;2023-06-14T08:31:12;16.90;;;15.60;;
63346;SDS011;49472;49.880;8.650;2023-06-14T08:33:38;17.92;;;16.23;;
63346;SDS011;49472;49.880;8.650;2023-06-14T08:36:07;16.85;;;15.57;;
63346;SDS011;49472;49.880;8.650;2023-06-14T08:38:37;16.45;;;15.45;;
63346;SDS011;49472;49.880;8.650;2023-06-14T08:41:02;17.23;;;15.70;;
63346;SDS011;49472;49.880;8.650;2023-06-14T08:43:33;17.08;;;15.57;;
63346;SDS011;49472;49.880;8.650;2023-06-14T08:46:00;18.40;;;15.43;;
63346;SDS011;49472;49.880;8.650;2023-06-14T08:48:28;16.00;;;15.00;;
63346;SDS011;49472;49.880;8.650;2023-06-14T08:50:56;23.15;;;15.55;;
63346;SDS011;49472;49.880;8.650;2023-06-14T08:53:30;17.33;;;14.88;;
63346;SDS011;49472;49.880;8.650;2023-06-14T08:55:57;15.75;;;14.65;;
63346;SDS011;49472;49.880;8.650;2023-06-14T08:58:26;16.02;;;14.75;;
63346;SDS011;49472;49.880;8.650;2023-06-14T09:00:56;14.93;;;14.00;;
63346;SDS011;49472;49.880;8.650;2023-06-14T09:03:23;16.45;;;15.05;;
63346;SDS011;49472;49.880;8.650;2023-06-14T09:05:54;15.65;;;14.55;;
63346;SDS011;49472;49.880;8.650;2023-06-14T09:08:20;14.77;;;13.55;;
63346;SDS011;49472;49.880;8.650;2023-06-14T09:10:47;15.20;;;14.10;;
63346;SDS011;49472;49.880;8.650;2023-06-14T09:13:14;15.68;;;14.55;;
63346;SDS011;49472;49.880;8.650;2023-06-14T09:15:39;16.67;;;15.35;;
63346;SDS011;49472;49.880;8.650;2023-06-14T09:18:04;15.27;;;14.27;;
63346;SDS011;49472;49.880;8.650;2023-06-14T09:20:31;15.60;;;14.13;;
63346;SDS011;49472;49.880;8.650;2023-06-14T09:22:57;15.63;;;14.45;;
63346;SDS011;49472;49.880;8.650;2023-06-14T09:25:22;15.68;;;14.68;;
63346;SDS011;49472;49.880;8.650;2023-06-14T09:27:51;15.35;;;14.40;;
63346;SDS011;49472;49.880;8.650;2023-06-14T09:30:19;16.10;;;14.85;;
63346;SDS011;49472;49.880;8.650;2023-06-14T09:32:45;16.05;;;14.63;;
63346;SDS011;49472;49.880;8.650;2023-06-14T09:35:10;15.88;;;14.88;;
63346;SDS011;49472;49.880;8.650;2023-06-14T09:37:37;17.00;;;15.35;;
63346;SDS011;49472;49.880;8.650;2023-06-14T09:40:04;16.88;;;15.40;;
63346;SDS011;49472;49.880;8.650;2023-06-14T09:42:29;16.65;;;15.25;;
63346;SDS011;49472;49.880;8.650;2023-06-14T09:44:56;15.90;;;14.50;;
63346;SDS011;49472;49.880;8.650;2023-06-14T09:47:22;15.90;;;14.68;;
63346;SDS011;49472;49.880;8.650;2023-06-14T09:49:48;15.45;;;14.48;;
63346;SDS011;49472;49.880;8.650;2023-06-14T09:52:18;15.77;;;14.23;;
63346;SDS011;49472;49.880;8.650;2023-06-14T09:54:46;18.02;;;14.25;;
63346;SDS011;49472;49.880;8.650;2023-06-14T09:57:13;14.90;;;14.00;;
63346;SDS011;49472;49.880;8.650;2023-06-14T09:59:43;16.17;;;14.68;;
63346;SDS011;49472;49.880;8.650;2023-06-14T10:02:26;16.67;;;15.27;;
63346;SDS011;49472;49.880;8.650;2023-06-14T10:05:03;16.77;;;15.40;;
63346;SDS011;49472;49.880;8.650;2023-06-14T10:07:56;18.38;;;15.68;;
63346;SDS011;49472;49.880;8.650;2023-06-14T10:10:29;15.95;;;14.85;;
63346;SDS011;49472;49.880;8.650;2023-06-14T10:12:54;15.60;;;14.70;;
63346;SDS011;49472;49.880;8.650;2023-06-14T10:15:23;15.43;;;14.18;;
63346;SDS011;49472;49.880;8.650;2023-06-14T10:17:58;15.55;;;14.20;;
63346;SDS011;49472;49.880;8.650;2023-06-14T10:22:56;14.18;;;13.38;;
63346;SDS011;49472;49.880;8.650;2023-06-14T10:25:29;15.13;;;14.13;;
63346;SDS011;49472;49.880;8.650;2023-06-14T10:28:02;13.88;;;13.02;;
63346;SDS011;49472;49.880;8.650;2023-06-14T10:30:40;15.07;;;13.82;;
63346;SDS011;49472;49.880;8.650;2023-06-14T10:39:00;14.23;;;13.30;;
63346;SDS011;49472;49.880;8.650;2023-06-14T10:41:29;15.35;;;13.52;;
63346;SDS011;49472;49.880;8.650;2023-06-14T10:46:39;14.48;;;13.60;;
63346;SDS011;49472;49.880;8.650;2023-06-14T10:49:05;15.15;;;13.80;;
63346;SDS011;49472;49.880;8.650;2023-06-14T10:51:44;14.65;;;13.65;;
63346;SDS011;49472;49.880;8.650;2023-06-14T10:54:16;14.13;;;13.02;;
63346;SDS011;49472;49.880;8.650;2023-06-14T10:59:18;14.25;;;13.35;;
63346;SDS011;49472;49.880;8.650;2023-06-14T11:04:30;14.20;;;13.40;;
63346;SDS011;49472;49.880;8.650;2023-06-14T11:07:20;15.15;;;13.75;;
63346;SDS011;49472;49.880;8.650;2023-06-14T11:13:12;14.07;;;13.18;;
63346;SDS011;49472;49.880;8.650;2023-06-14T11:15:38;13.15;;;12.32;;
63346;SDS011;49472;49.880;8.650;2023-06-14T11:18:09;14.85;;;13.40;;
63346;SDS011;49472;49.880;8.650;2023-06-14T11:20:35;14.63;;;13.43;;
63346;SDS011;49472;49.880;8.650;2023-06-14T11:23:01;13.98;;;13.18;;
63346;SDS011;49472;49.880;8.650;2023-06-14T11:25:28;14.27;;;13.48;;
63346;SDS011;49472;49.880;8.650;2023-06-14T11:27:55;13.27;;;12.40;;
63346;SDS011;49472;49.880;8.650;2023-06-14T11:30:21;15.55;;;14.10;;
63346;SDS011;49472;49.880;8.650;2023-06-14T11:32:48;15.18;;;14.07;;
63346;SDS011;49472;49.880;8.650;2023-06-14T11:35:17;19.42;;;13.77;;
63346;SDS011;49472;49.880;8.650;2023-06-14T11:37:43;16.08;;;14.68;;
63346;SDS011;49472;49.880;8.650;2023-06-14T11:40:12;14.57;;;13.35;;
63346;SDS011;49472;49.880;8.650;2023-06-14T11:42:40;14.73;;;13.50;;
63346;SDS011;49472;49.880;8.650;2023-06-14T11:45:10;14.57;;;13.68;;
63346;SDS011;49472;49.880;8.650;2023-06-14T11:47:37;14.77;;;13.70;;
63346;SDS011;49472;49.880;8.650;2023-06-14T11:50:04;14.18;;;13.00;;
63346;SDS011;49472;49.880;8.650;2023-06-14T11:52:31;13.80;;;13.10;;
63346;SDS011;49472;49.880;8.650;2023-06-14T11:54:58;14.02;;;13.00;;
63346;SDS011;49472;49.880;8.650;2023-06-14T11:57:25;14.27;;;13.18;;
63346;SDS011;49472;49.880;8.650;2023-06-14T11:59:51;14.40;;;13.50;;
63346;SDS011;49472;49.880;8.650;2023-06-14T12:02:17;14.90;;;13.80;;
63346;SDS011;49472;49.880;8.650;2023-06-14T12:04:49;15.13;;;13.70;;
63346;SDS011;49472;49.880;8.650;2023-06-14T12:07:16;14.85;;;13.75;;
63346;SDS011;49472;49.880;8.650;2023-06-14T12:12:22;13.93;;;12.93;;
63346;SDS011;49472;49.880;8.650;2023-06-14T12:14:50;14.60;;;13.07;;
63346;SDS011;49472;49.880;8.650;2023-06-14T12:17:16;14.57;;;13.23;;
63346;SDS011;49472;49.880;8.650;2023-06-14T12:19:42;14.07;;;12.98;;
63346;SDS011;49472;49.880;8.650;2023-06-14T12:22:11;14.98;;;12.80;;
63346;SDS011;49472;49.880;8.650;2023-06-14T12:24:38;14.10;;;13.30;;
63346;SDS011;49472;49.880;8.650;2023-06-14T12:27:04;13.75;;;12.68;;
63346;SDS011;49472;49.880;8.650;2023-06-14T12:29:30;13.95;;;12.95;;
63346;SDS011;49472;49.880;8.650;2023-06-14T12:31:56;15.13;;;13.60;;
63346;SDS011;49472;49.880;8.650;2023-06-14T12:34:25;14.30;;;13.05;;
63346;SDS011;49472;49.880;8.650;2023-06-14T12:36:52;13.70;;;12.60;;
63346;SDS011;49472;49.880;8.650;2023-06-14T12:39:19;13.43;;;12.70;;
63346;SDS011;49472;49.880;8.650;2023-06-14T12:41:45;14.07;;;13.18;;
63346;SDS011;49472;49.880;8.650;2023-06-14T12:44:12;14.35;;;13.45;;
63346;SDS011;49472;49.880;8.650;2023-06-14T12:46:38;14.43;;;13.07;;
63346;SDS011;49472;49.880;8.650;2023-06-14T12:49:04;13.80;;;13.00;;
63346;SDS011;49472;49.880;8.650;2023-06-14T12:51:30;13.68;;;12.55;;
63346;SDS011;49472;49.880;8.650;2023-06-14T12:53:55;14.10;;;13.10;;
63346;SDS011;49472;49.880;8.650;2023-06-14T12:56:21;13.63;;;12.57;;
63346;SDS011;49472;49.880;8.650;2023-06-14T12:58:46;14.02;;;12.68;;
63346;SDS011;49472;49.880;8.650;2023-06-14T13:01:11;13.20;;;12.45;;
63346;SDS011;49472;49.880;8.650;2023-06-14T13:03:39;13.60;;;12.80;;
63346;SDS011;49472;49.880;8.650;2023-06-14T13:06:05;14.05;;;13.13;;
63346;SDS011;49472;49.880;8.650;2023-06-14T13:08:30;13.95;;;12.95;;
63346;SDS011;49472;49.880;8.650;2023-06-14T13:10:56;13.43;;;12.43;;
63346;SDS011;49472;49.880;8.650;2023-06-14T13:13:21;13.40;;;12.25;;
63346;SDS011;49472;49.880;8.650;2023-06-14T13:15:46;14.00;;;12.90;;
63346;SDS011;49472;49.880;8.650;2023-06-14T13:18:14;14.02;;;12.90;;
63346;SDS011;49472;49.880;8.650;2023-06-14T13:20:39;12.57;;;11.73;;
63346;SDS011;49472;49.880;8.650;2023-06-14T13:23:05;12.80;;;11.98;;
63346;SDS011;49472;49.880;8.650;2023-06-14T13:25:32;12.75;;;11.90;;
63346;SDS011;49472;49.880;8.650;2023-06-14T13:28:01;12.13;;;11.00;;
63346;SDS011;49472;49.880;8.650;2023-06-14T13:30:27;12.70;;;11.82;;
63346;SDS011;49472;49.880;8.650;2023-06-14T13:32:52;11.88;;;11.18;;
63346;SDS011;49472;49.880;8.650;2023-06-14T13:35:18;10.90;;;10.07;;
63346;SDS011;49472;49.880;8.650;2023-06-14T13:37:44;12.25;;;11.20;;
63346;SDS011;49472;49.880;8.650;2023-06-14T13:40:10;10.73;;;10.10;;
63346;SDS011;49472;49.880;8.650;2023-06-14T13:42:36;11.18;;;10.60;;
63346;SDS011;49472;49.880;8.650;2023-06-14T13:45:02;10.77;;;10.07;;
63346;SDS011;49472;49.880;8.650;2023-06-14T13:47:28;10.63;;;10.02;;
63346;SDS011;49472;49.880;8.650;2023-06-14T13:49:55;10.65;;;10.13;;
63346;SDS011;49472;49.880;8.650;2023-06-14T13:52:21;10.65;;;9.93;;
63346;SDS011;49472;49.880;8.650;2023-06-14T13:54:46;10.98;;;10.38;;
63346;SDS011;49472;49.880;8.650;2023-06-14T13:57:12;12.65;;;10.77;;
63346;SDS011;49472;49.880;8.650;2023-06-14T13:59:39;10.52;;;9.75;;
63346;SDS011;49472;49.880;8.650;2023-06-14T14:02:05;11.52;;;10.82;;
63346;SDS011;49472;49.880;8.650;2023-06-14T14:04:31;12.30;;;11.50;;
63346;SDS011;49472;49.880;8.650;2023-06-14T14:06:56;12.07;;;11.30;;
63346;SDS011;49472;49.880;8.650;2023-06-14T14:09:22;11.45;;;10.85;;
63346;SDS011;49472;49.880;8.650;2023-06-14T14:11:47;12.07;;;11.10;;
63346;SDS011;49472;49.880;8.650;2023-06-14T14:14:13;11.75;;;10.90;;
63346;SDS011;49472;49.880;8.650;2023-06-14T14:16:39;11.52;;;10.82;;
63346;SDS011;49472;49.880;8.650;2023-06-14T14:19:04;11.38;;;10.68;;
63346;SDS011;49472;49.880;8.650;2023-06-14T14:21:31;12.00;;;11.07;;
63346;SDS011;49472;49.880;8.650;2023-06-14T14:23:57;11.70;;;11.10;;
63346;SDS011;49472;49.880;8.650;2023-06-14T14:26:22;11.98;;;11.00;;
63346;SDS011;49472;49.880;8.650;2023-06-14T14:28:48;10.70;;;10.07;;
63346;SDS011;49472;49.880;8.650;2023-06-14T14:31:14;11.48;;;10.60;;
63346;SDS011;49472;49.880;8.650;2023-06-14T14:33:39;10.40;;;9.80;;
63346;SDS011;49472;49.880;8.650;2023-06-14T14:36:04;11.00;;;10.02;;
63346;SDS011;49472;49.880;8.650;2023-06-14T14:38:32;11.38;;;10.45;;
63346;SDS011;49472;49.880;8.650;2023-06-14T14:40:58;11.60;;;10.88;;
63346;SDS011;49472;49.880;8.650;2023-06-14T14:43:23;12.63;;;11.50;;
63346;SDS011;49472;49.880;8.650;2023-06-14T14:45:48;13.52;;;10.75;;